• Join FlightAware (Why Join?)
  • Login
  • US Flag 
02:51AM EDT


 

Airport Tracker/Info


-or-


 

Live Flight TrackerFlight Track Log ✈ N27XP ✈ 18-Nov-2013 ✈ KLAF - KSOP

Flight Track Log - Related Links

Times and Time Zones

All times are in EST time to prevent confusion due to time zone crossing. See the N27XP flight status page for this flight to view local times or setup timezone preferences in your user account.

Time Position Orientation Groundspeed Altitude Reporting Facility
EST Latitude Longitude Course Direction KTS MPH feet Rate Location/Type
01:59PM 40.4139 -86.9636 212° Southwest 165 190 2,000  Level Chicago Center
01:59PM 40.3892 -86.9836 212° Southwest 223 257 4,400 3,600 Climbing Chicago Center
02:00PM 40.3308 -86.9264 143° Southeast 294 338 8,000 2,940 Climbing Chicago Center
02:01PM 40.2758 -86.8394 130° Southeast 311 358 10,500 2,460 Climbing Chicago Center
02:02PM 40.2142 -86.7367 128° Southeast 349 402 13,100 2,580 Climbing Chicago Center
02:03PM 40.1336 -86.6078 129° Southeast 376 433 15,900 2,340 Climbing Chicago Center
02:05PM 40.0650 -86.4983 129° Southeast 387 445 18,000 1,980 Climbing Chicago Center
02:06PM 39.9950 -86.3861 129° Southeast 395 455 20,100 1,920 Climbing Chicago Center
02:07PM 39.9208 -86.2703 130° Southeast 404 465 22,000 1,980 Climbing Indianapolis Center
02:08PM 39.8467 -86.1525 129° Southeast 411 473 24,200 1,980 Climbing Indianapolis Center
02:09PM 39.7728 -86.0350 129° Southeast 412 474 26,100 1,800 Climbing Indianapolis Center
02:10PM 39.6992 -85.9197 130° Southeast 413 475 27,900 1,680 Climbing Indianapolis Center
02:11PM 39.6264 -85.8047 129° Southeast 412 474 29,600 1,680 Climbing Indianapolis Center
02:12PM 39.5383 -85.6658 129° Southeast 414 476 31,400 1,440 Climbing Indianapolis Center
02:13PM 39.4639 -85.5497 130° Southeast 417 480 32,600 1,140 Climbing Indianapolis Center
02:14PM 39.3878 -85.4331 130° Southeast 423 487 33,800 960 Climbing Indianapolis Center
02:15PM 39.3100 -85.3133 130° Southeast 431 496 34,700 540 Climbing Indianapolis Center
02:16PM 39.2306 -85.1906 130° Southeast 441 507 35,000 120 Climbing Indianapolis Center
02:17PM 39.1436 -85.0606 131° Southeast 472 543 35,000  Level Indianapolis Center
02:18PM 39.0533 -84.9247 131° Southeast 494 568 35,000  Level Indianapolis Center
02:19PM 38.9439 -84.7592 130° Southeast 512 589 35,000  Level Indianapolis Center
02:20PM 38.8511 -84.6178 130° Southeast 513 590 35,000  Level Indianapolis Center
02:21PM 38.7589 -84.4817 131° Southeast 518 596 35,000  Level Indianapolis Center
02:22PM 38.6656 -84.3419 131° Southeast 518 596 35,000  Level Indianapolis Center
02:23PM 38.5547 -84.1769 131° Southeast 517 595 35,000  Level Indianapolis Center
02:24PM 38.4625 -84.0394 131° Southeast 510 587 35,000  Level Indianapolis Center
02:25PM 38.3697 -83.9028 131° Southeast 511 588 35,000  Level Indianapolis Center
02:26PM 38.2758 -83.7683 132° Southeast 508 585 35,000  Level Indianapolis Center
02:27PM 38.1825 -83.6322 131° Southeast 508 585 35,000  Level Indianapolis Center
02:28PM 38.0747 -83.4747 131° Southeast 505 581 35,000  Level Indianapolis Center
02:29PM 37.9825 -83.3431 132° Southeast 499 574 35,000  Level Indianapolis Center
02:30PM 37.8908 -83.2108 131° Southeast 498 573 35,000  Level Indianapolis Center
02:31PM 37.7972 -83.0764 131° Southeast 506 582 35,000  Level Indianapolis Center
02:32PM 37.7033 -82.9442 132° Southeast 505 581 35,000  Level Indianapolis Center
02:33PM 37.6094 -82.8111 132° Southeast 506 582 35,000  Level Indianapolis Center
02:34PM 37.5008 -82.6572 132° Southeast 503 579 35,000  Level Indianapolis Center
02:35PM 37.4053 -82.5242 132° Southeast 506 582 35,000  Level Indianapolis Center
02:37PM 37.3103 -82.3906 132° Southeast 508 585 35,000  Level Indianapolis Center
02:38PM 37.2150 -82.2572 132° Southeast 509 586 35,000  Level Indianapolis Center
02:39PM 37.1194 -82.1244 132° Southeast 509 586 35,000  Level Indianapolis Center
02:40PM 37.0228 -81.9933 133° Southeast 509 586 35,000  Level Indianapolis Center
02:41PM 36.9275 -81.8608 132° Southeast 510 587 35,000  Level Indianapolis Center
02:42PM 36.8153 -81.7078 132° Southeast 510 587 35,000 -840 Level Indianapolis Center
02:43PM 36.7203 -81.5778 132° Southeast 506 582 33,300 -1,800 Descending Indianapolis Center
02:44PM 36.6269 -81.4506 132° Southeast 507 583 31,400 -1,680 Descending Indianapolis Center
02:45PM 36.5358 -81.3275 133° Southeast 501 577 29,900 -1,920 Descending Indianapolis Center
02:46PM 36.4169 -81.1700 133° Southeast 508 585 27,400 -2,100 Descending Atlanta Center
02:47PM 36.3261 -81.0442 132° Southeast 503 579 25,500 -1,740 Descending Atlanta Center
02:48PM 36.2336 -80.9217 133° Southeast 497 572 24,000 -780 Descending Atlanta Center
02:49PM 36.1494 -80.8117 133° Southeast 491 565 24,000 -720 Level Atlanta Center
02:50PM 36.0519 -80.6819 133° Southeast 485 558 22,600 -1,500 Descending Atlanta Center
02:51PM 35.9631 -80.5625 133° Southeast 475 547 21,000 -1,320 Descending Atlanta Center
02:52PM 35.8764 -80.4483 133° Southeast 465 535 20,000 -1,620 Descending Atlanta Center
02:53PM 35.7917 -80.3344 133° Southeast 460 529 17,800 -1,500 Descending Atlanta Center
02:54PM 35.7178 -80.2406 134° Southeast 449 517 17,000 -1,440 Descending Atlanta Center
02:55PM 35.6356 -80.1394 135° Southeast 432 497 15,000 -1,860 Descending Atlanta Center
02:56PM 35.5464 -80.0161 132° Southeast 410 472 13,000 -960 Descending Washington Center
02:57PM 35.4806 -79.9308 133° Southeast 383 441 13,000  Level Washington Center
02:58PM 35.4047 -79.8350 134° Southeast 370 426 13,000  Level Washington Center